sensor_id;sensor_type;location;lat;lon;timestamp;pressure;altitude;pressure_sealevel;temperature;humidity
52535;BME280;38443;53.164;5.802;2022-08-01T00:00:08;101720.44;;;16.81;86.53
52535;BME280;38443;53.164;5.802;2022-08-01T00:02:37;101725.00;;;16.79;86.38
52535;BME280;38443;53.164;5.802;2022-08-01T00:05:07;101732.34;;;16.75;86.41
52535;BME280;38443;53.164;5.802;2022-08-01T00:07:36;101720.66;;;16.75;86.38
52535;BME280;38443;53.164;5.802;2022-08-01T00:10:06;101730.84;;;16.68;86.65
52535;BME280;38443;53.164;5.802;2022-08-01T00:12:32;101729.09;;;16.67;86.40
52535;BME280;38443;53.164;5.802;2022-08-01T00:14:58;101729.22;;;16.64;86.26
52535;BME280;38443;53.164;5.802;2022-08-01T00:17:23;101732.91;;;16.62;86.50
52535;BME280;38443;53.164;5.802;2022-08-01T00:19:48;101740.16;;;16.61;86.81
52535;BME280;38443;53.164;5.802;2022-08-01T00:22:14;101743.03;;;16.57;86.58
52535;BME280;38443;53.164;5.802;2022-08-01T00:24:39;101735.00;;;16.55;86.62
52535;BME280;38443;53.164;5.802;2022-08-01T00:27:05;101736.06;;;16.51;86.57
52535;BME280;38443;53.164;5.802;2022-08-01T00:29:30;101737.13;;;16.47;86.63
52535;BME280;38443;53.164;5.802;2022-08-01T00:31:55;101743.47;;;16.46;86.56
52535;BME280;38443;53.164;5.802;2022-08-01T00:34:21;101730.94;;;16.43;86.62
52535;BME280;38443;53.164;5.802;2022-08-01T00:36:46;101731.91;;;16.42;86.46
52535;BME280;38443;53.164;5.802;2022-08-01T00:39:12;101729.19;;;16.42;86.38
52535;BME280;38443;53.164;5.802;2022-08-01T00:41:37;101741.91;;;16.40;86.31
52535;BME280;38443;53.164;5.802;2022-08-01T00:44:04;101729.31;;;16.39;86.49
52535;BME280;38443;53.164;5.802;2022-08-01T00:46:31;101738.38;;;16.38;86.01
52535;BME280;38443;53.164;5.802;2022-08-01T00:48:57;101727.47;;;16.40;86.19
52535;BME280;38443;53.164;5.802;2022-08-01T00:51:22;101736.59;;;16.37;86.27
52535;BME280;38443;53.164;5.802;2022-08-01T00:53:49;101736.59;;;16.37;86.27
52535;BME280;38443;53.164;5.802;2022-08-01T00:56:15;101734.84;;;16.36;86.18
52535;BME280;38443;53.164;5.802;2022-08-01T00:58:41;101733.06;;;16.35;86.17
52535;BME280;38443;53.164;5.802;2022-08-01T01:01:06;101741.19;;;16.35;86.23
52535;BME280;38443;53.164;5.802;2022-08-01T01:03:32;101746.63;;;16.33;86.22
52535;BME280;38443;53.164;5.802;2022-08-01T01:06:07;101748.59;;;16.30;85.85
52535;BME280;38443;53.164;5.802;2022-08-01T01:08:41;101743.31;;;16.27;85.84
52535;BME280;38443;53.164;5.802;2022-08-01T01:11:23;101738.84;;;16.26;85.84
52535;BME280;38443;53.164;5.802;2022-08-01T01:13:54;101739.72;;;16.26;86.10
52535;BME280;38443;53.164;5.802;2022-08-01T01:16:23;101740.59;;;16.27;85.98
52535;BME280;38443;53.164;5.802;2022-08-01T01:18:56;101741.59;;;16.24;86.13
52535;BME280;38443;53.164;5.802;2022-08-01T01:24:36;101729.03;;;16.23;86.00
52535;BME280;38443;53.164;5.802;2022-08-01T01:27:24;101729.16;;;16.20;85.28
52535;BME280;38443;53.164;5.802;2022-08-01T01:29:56;101738.13;;;16.21;85.95
52535;BME280;38443;53.164;5.802;2022-08-01T01:32:43;101737.31;;;16.19;85.41
52535;BME280;38443;53.164;5.802;2022-08-01T01:35:21;101739.19;;;16.17;85.04
52535;BME280;38443;53.164;5.802;2022-08-01T01:37:51;101740.06;;;16.17;85.69
52535;BME280;38443;53.164;5.802;2022-08-01T01:40:19;101738.25;;;16.18;85.49
52535;BME280;38443;53.164;5.802;2022-08-01T01:42:46;101740.06;;;16.17;85.54
52535;BME280;38443;53.164;5.802;2022-08-01T01:45:13;101746.44;;;16.16;85.76
52535;BME280;38443;53.164;5.802;2022-08-01T01:47:39;101750.94;;;16.15;85.39
52535;BME280;38443;53.164;5.802;2022-08-01T01:50:08;101750.09;;;16.13;85.54
52535;BME280;38443;53.164;5.802;2022-08-01T01:52:37;101756.50;;;16.11;85.42
52535;BME280;38443;53.164;5.802;2022-08-01T01:55:07;101753.88;;;16.09;85.34
52535;BME280;38443;53.164;5.802;2022-08-01T01:57:36;101750.41;;;16.06;85.58
52535;BME280;38443;53.164;5.802;2022-08-01T02:02:44;101760.44;;;16.02;85.56
52535;BME280;38443;53.164;5.802;2022-08-01T02:05:12;101749.69;;;16.01;85.63
52535;BME280;38443;53.164;5.802;2022-08-01T02:07:38;101758.66;;;16.01;85.55
52535;BME280;38443;53.164;5.802;2022-08-01T02:10:05;101756.97;;;15.99;85.73
52535;BME280;38443;53.164;5.802;2022-08-01T02:12:35;101758.81;;;15.98;85.69
52535;BME280;38443;53.164;5.802;2022-08-01T02:15:02;101765.03;;;16.00;86.00
52535;BME280;38443;53.164;5.802;2022-08-01T02:17:29;101762.31;;;16.00;85.95
52535;BME280;38443;53.164;5.802;2022-08-01T02:19:56;101761.47;;;16.00;86.02
52535;BME280;38443;53.164;5.802;2022-08-01T02:22:34;101759.72;;;15.97;85.42
52535;BME280;38443;53.164;5.802;2022-08-01T02:25:36;101758.03;;;15.94;84.99
52535;BME280;38443;53.164;5.802;2022-08-01T02:28:08;101744.53;;;15.94;85.55
52535;BME280;38443;53.164;5.802;2022-08-01T02:30:36;101752.69;;;15.93;85.66
52535;BME280;38443;53.164;5.802;2022-08-01T02:33:08;101761.78;;;15.90;85.17
52535;BME280;38443;53.164;5.802;2022-08-01T02:35:38;101751.91;;;15.89;85.38
52535;BME280;38443;53.164;5.802;2022-08-01T02:38:09;101753.72;;;15.89;85.07
52535;BME280;38443;53.164;5.802;2022-08-01T02:40:38;101760.97;;;15.88;85.35
52535;BME280;38443;53.164;5.802;2022-08-01T02:43:05;101765.50;;;15.88;85.48
52535;BME280;38443;53.164;5.802;2022-08-01T02:45:33;101774.50;;;15.87;85.28
52535;BME280;38443;53.164;5.802;2022-08-01T02:48:11;101775.50;;;15.84;84.72
52535;BME280;38443;53.164;5.802;2022-08-01T02:50:39;101784.44;;;15.86;85.11
52535;BME280;38443;53.164;5.802;2022-08-01T02:53:07;101780.03;;;15.84;85.10
52535;BME280;38443;53.164;5.802;2022-08-01T02:55:37;101781.84;;;15.83;85.15
52535;BME280;38443;53.164;5.802;2022-08-01T02:58:04;101788.19;;;15.82;85.17
52535;BME280;38443;53.164;5.802;2022-08-01T03:00:31;101793.63;;;15.81;85.25
52535;BME280;38443;53.164;5.802;2022-08-01T03:02:59;101789.28;;;15.77;84.67
52535;BME280;38443;53.164;5.802;2022-08-01T03:05:26;101794.69;;;15.77;84.87
52535;BME280;38443;53.164;5.802;2022-08-01T03:07:54;101801.94;;;15.74;84.62
52535;BME280;38443;53.164;5.802;2022-08-01T03:10:21;101800.16;;;15.73;84.87
52535;BME280;38443;53.164;5.802;2022-08-01T03:12:48;101802.00;;;15.71;84.65
52535;BME280;38443;53.164;5.802;2022-08-01T03:15:16;101807.41;;;15.71;84.75
52535;BME280;38443;53.164;5.802;2022-08-01T03:17:44;101801.25;;;15.68;84.58
52535;BME280;38443;53.164;5.802;2022-08-01T03:20:13;101798.56;;;15.68;84.70
52535;BME280;38443;53.164;5.802;2022-08-01T03:22:40;101804.00;;;15.66;84.63
52535;BME280;38443;53.164;5.802;2022-08-01T03:25:08;101805.84;;;15.66;84.55
52535;BME280;38443;53.164;5.802;2022-08-01T03:27:35;101813.03;;;15.65;84.41
52535;BME280;38443;53.164;5.802;2022-08-01T03:30:03;101808.63;;;15.63;84.38
52535;BME280;38443;53.164;5.802;2022-08-01T03:32:30;101813.03;;;15.65;84.63
52535;BME280;38443;53.164;5.802;2022-08-01T03:34:56;101816.69;;;15.64;84.32
52535;BME280;38443;53.164;5.802;2022-08-01T03:37:28;101816.72;;;15.63;83.60
52535;BME280;38443;53.164;5.802;2022-08-01T03:40:05;101826.69;;;15.61;83.71
52535;BME280;38443;53.164;5.802;2022-08-01T03:42:38;101822.25;;;15.60;83.98
52535;BME280;38443;53.164;5.802;2022-08-01T03:45:08;101816.84;;;15.60;84.29
52535;BME280;38443;53.164;5.802;2022-08-01T03:47:35;101820.41;;;15.60;84.47
52535;BME280;38443;53.164;5.802;2022-08-01T03:50:03;101821.47;;;15.56;84.06
52535;BME280;38443;53.164;5.802;2022-08-01T03:52:30;101828.72;;;15.54;83.73
52535;BME280;38443;53.164;5.802;2022-08-01T03:54:59;101824.38;;;15.50;83.61
52535;BME280;38443;53.164;5.802;2022-08-01T03:57:28;101821.75;;;15.47;83.25
52535;BME280;38443;53.164;5.802;2022-08-01T03:59:56;101825.47;;;15.44;82.91
52535;BME280;38443;53.164;5.802;2022-08-01T04:02:22;101833.59;;;15.43;82.65
52535;BME280;38443;53.164;5.802;2022-08-01T04:04:48;101829.19;;;15.40;82.97
52535;BME280;38443;53.164;5.802;2022-08-01T04:07:28;101836.41;;;15.40;80.85
52535;BME280;38443;53.164;5.802;2022-08-01T04:09:54;101839.13;;;15.40;82.64
52535;BME280;38443;53.164;5.802;2022-08-01T04:12:20;101832.88;;;15.38;82.56
52535;BME280;38443;53.164;5.802;2022-08-01T04:14:46;101839.16;;;15.38;82.31
52535;BME280;38443;53.164;5.802;2022-08-01T04:17:12;101849.06;;;15.38;82.50
52535;BME280;38443;53.164;5.802;2022-08-01T04:19:38;101855.28;;;15.40;82.73
52535;BME280;38443;53.164;5.802;2022-08-01T04:22:04;101857.09;;;15.39;82.71
52535;BME280;38443;53.164;5.802;2022-08-01T04:24:32;101852.72;;;15.35;82.10
52535;BME280;38443;53.164;5.802;2022-08-01T04:27:00;101849.16;;;15.34;82.02
52535;BME280;38443;53.164;5.802;2022-08-01T04:29:27;101858.13;;;15.35;82.30
52535;BME280;38443;53.164;5.802;2022-08-01T04:31:55;101858.13;;;15.35;81.88
52535;BME280;38443;53.164;5.802;2022-08-01T04:34:24;101869.88;;;15.34;81.83
52535;BME280;38443;53.164;5.802;2022-08-01T04:36:52;101865.34;;;15.34;82.12
52535;BME280;38443;53.164;5.802;2022-08-01T04:39:20;101868.91;;;15.35;81.94
52535;BME280;38443;53.164;5.802;2022-08-01T04:41:48;101869.00;;;15.33;82.03
52535;BME280;38443;53.164;5.802;2022-08-01T04:44:15;101875.31;;;15.32;81.71
52535;BME280;38443;53.164;5.802;2022-08-01T04:46:42;101881.56;;;15.33;81.69
52535;BME280;38443;53.164;5.802;2022-08-01T04:49:10;101890.50;;;15.35;81.73
52535;BME280;38443;53.164;5.802;2022-08-01T04:51:37;101896.72;;;15.37;82.18
52535;BME280;38443;53.164;5.802;2022-08-01T04:54:14;101895.84;;;15.36;82.00
52535;BME280;38443;53.164;5.802;2022-08-01T04:56:39;101898.56;;;15.36;82.25
52535;BME280;38443;53.164;5.802;2022-08-01T04:59:04;101904.06;;;15.33;82.24
52535;BME280;38443;53.164;5.802;2022-08-01T05:01:49;101904.06;;;15.33;82.08
52535;BME280;38443;53.164;5.802;2022-08-01T05:04:15;101902.25;;;15.34;81.80
52535;BME280;38443;53.164;5.802;2022-08-01T05:06:40;101897.72;;;15.34;82.13
52535;BME280;38443;53.164;5.802;2022-08-01T05:09:06;101908.47;;;15.36;81.77
52535;BME280;38443;53.164;5.802;2022-08-01T05:11:31;101903.06;;;15.36;81.96
52535;BME280;38443;53.164;5.802;2022-08-01T05:13:56;101915.69;;;15.35;81.66
52535;BME280;38443;53.164;5.802;2022-08-01T05:16:22;101920.97;;;15.39;81.47
52535;BME280;38443;53.164;5.802;2022-08-01T05:18:47;101923.69;;;15.37;81.72
52535;BME280;38443;53.164;5.802;2022-08-01T05:21:12;101926.41;;;15.37;81.64
52535;BME280;38443;53.164;5.802;2022-08-01T05:23:38;101918.38;;;15.35;81.49
52535;BME280;38443;53.164;5.802;2022-08-01T05:26:03;101924.69;;;15.34;81.27
52535;BME280;38443;53.164;5.802;2022-08-01T05:28:30;101921.84;;;15.39;81.28
52535;BME280;38443;53.164;5.802;2022-08-01T05:30:55;101921.91;;;15.38;80.94
52535;BME280;38443;53.164;5.802;2022-08-01T05:33:22;101927.25;;;15.39;81.09
52535;BME280;38443;53.164;5.802;2022-08-01T05:35:47;101925.38;;;15.41;81.42
52535;BME280;38443;53.164;5.802;2022-08-01T05:38:12;101919.94;;;15.43;81.26
52535;BME280;38443;53.164;5.802;2022-08-01T05:40:38;101927.03;;;15.45;81.28
52535;BME280;38443;53.164;5.802;2022-08-01T05:43:03;101933.22;;;15.49;81.00
52535;BME280;38443;53.164;5.802;2022-08-01T05:45:28;101923.22;;;15.52;80.91
52535;BME280;38443;53.164;5.802;2022-08-01T05:47:53;101925.84;;;15.55;80.96
52535;BME280;38443;53.164;5.802;2022-08-01T05:50:19;101930.19;;;15.60;80.69
52535;BME280;38443;53.164;5.802;2022-08-01T05:52:44;101930.03;;;15.64;80.32
52535;BME280;38443;53.164;5.802;2022-08-01T05:55:10;101931.78;;;15.65;80.00
52535;BME280;38443;53.164;5.802;2022-08-01T05:57:35;101938.78;;;15.71;80.04
52535;BME280;38443;53.164;5.802;2022-08-01T06:00:00;101938.75;;;15.74;79.52
52535;BME280;38443;53.164;5.802;2022-08-01T06:02:26;101933.22;;;15.77;78.83
52535;BME280;38443;53.164;5.802;2022-08-01T06:04:52;101941.25;;;15.80;79.07
52535;BME280;38443;53.164;5.802;2022-08-01T06:07:18;101940.16;;;15.86;78.73
52535;BME280;38443;53.164;5.802;2022-08-01T06:09:43;101941.81;;;15.90;78.44
52535;BME280;38443;53.164;5.802;2022-08-01T06:12:08;101940.91;;;15.89;77.89
52535;BME280;38443;53.164;5.802;2022-08-01T06:14:34;101940.69;;;15.95;77.85
52535;BME280;38443;53.164;5.802;2022-08-01T06:16:59;101940.56;;;16.00;77.88
52535;BME280;38443;53.164;5.802;2022-08-01T06:19:27;101935.41;;;15.92;76.89
52535;BME280;38443;53.164;5.802;2022-08-01T06:21:52;101939.31;;;15.84;77.34
52535;BME280;38443;53.164;5.802;2022-08-01T06:24:18;101938.59;;;15.79;76.52
52535;BME280;38443;53.164;5.802;2022-08-01T06:26:43;101939.63;;;15.74;76.42
52535;BME280;38443;53.164;5.802;2022-08-01T06:29:08;101940.41;;;15.78;76.62
52535;BME280;38443;53.164;5.802;2022-08-01T06:31:34;101941.91;;;15.87;76.06
52535;BME280;38443;53.164;5.802;2022-08-01T06:33:59;101946.97;;;15.98;75.87
52535;BME280;38443;53.164;5.802;2022-08-01T06:36:24;101959.50;;;15.99;75.33
52535;BME280;38443;53.164;5.802;2022-08-01T06:38:50;101953.06;;;16.03;75.63
52535;BME280;38443;53.164;5.802;2022-08-01T06:41:16;101957.63;;;16.52;74.17
52535;BME280;38443;53.164;5.802;2022-08-01T06:43:41;101953.03;;;17.27;72.63
52535;BME280;38443;53.164;5.802;2022-08-01T06:46:07;101950.97;;;17.78;71.96
52535;BME280;38443;53.164;5.802;2022-08-01T06:48:32;101960.69;;;18.26;71.19
52535;BME280;38443;53.164;5.802;2022-08-01T06:50:57;101955.00;;;18.52;70.57
52535;BME280;38443;53.164;5.802;2022-08-01T06:53:38;101955.44;;;19.03;70.13
52535;BME280;38443;53.164;5.802;2022-08-01T06:56:05;101958.53;;;19.15;68.44
52535;BME280;38443;53.164;5.802;2022-08-01T06:58:31;101962.97;;;18.97;68.36
52535;BME280;38443;53.164;5.802;2022-08-01T07:00:57;101959.22;;;19.18;67.47
52535;BME280;38443;53.164;5.802;2022-08-01T07:03:22;101962.84;;;19.38;65.99
52535;BME280;38443;53.164;5.802;2022-08-01T07:05:48;101959.69;;;19.47;66.37
52535;BME280;38443;53.164;5.802;2022-08-01T07:08:13;101960.69;;;19.44;65.05
52535;BME280;38443;53.164;5.802;2022-08-01T07:10:38;101957.78;;;19.11;65.60
52535;BME280;38443;53.164;5.802;2022-08-01T07:13:04;101965.41;;;19.03;64.98
52535;BME280;38443;53.164;5.802;2022-08-01T07:15:29;101962.19;;;19.32;64.97
52535;BME280;38443;53.164;5.802;2022-08-01T07:17:54;101966.41;;;19.38;63.34
52535;BME280;38443;53.164;5.802;2022-08-01T07:20:21;101969.28;;;19.54;64.08
52535;BME280;38443;53.164;5.802;2022-08-01T07:22:46;101969.78;;;19.62;63.10
52535;BME280;38443;53.164;5.802;2022-08-01T07:25:12;101965.13;;;19.64;63.09
52535;BME280;38443;53.164;5.802;2022-08-01T07:27:37;101961.78;;;19.78;62.55
52535;BME280;38443;53.164;5.802;2022-08-01T07:30:04;101966.50;;;19.92;61.76
52535;BME280;38443;53.164;5.802;2022-08-01T07:32:30;101959.97;;;19.96;62.18
52535;BME280;38443;53.164;5.802;2022-08-01T07:34:55;101968.84;;;20.00;59.86
52535;BME280;38443;53.164;5.802;2022-08-01T07:37:21;101968.81;;;19.82;61.36
52535;BME280;38443;53.164;5.802;2022-08-01T07:39:47;101970.03;;;19.77;61.66
52535;BME280;38443;53.164;5.802;2022-08-01T07:42:12;101978.19;;;19.94;61.22
52535;BME280;38443;53.164;5.802;2022-08-01T07:44:38;101974.03;;;20.04;60.74
52535;BME280;38443;53.164;5.802;2022-08-01T07:47:04;101979.34;;;20.25;59.86
52535;BME280;38443;53.164;5.802;2022-08-01T07:49:29;101982.22;;;20.39;59.56
52535;BME280;38443;53.164;5.802;2022-08-01T07:51:55;101985.78;;;20.59;59.13
52535;BME280;38443;53.164;5.802;2022-08-01T07:54:20;101995.47;;;20.80;58.41
52535;BME280;38443;53.164;5.802;2022-08-01T07:56:49;101993.34;;;20.87;57.10
52535;BME280;38443;53.164;5.802;2022-08-01T07:59:14;101992.28;;;20.89;56.07
52535;BME280;38443;53.164;5.802;2022-08-01T08:01:39;101999.50;;;20.73;55.93
52535;BME280;38443;53.164;5.802;2022-08-01T08:04:05;102009.56;;;20.19;56.99
52535;BME280;38443;53.164;5.802;2022-08-01T08:06:30;102006.66;;;20.04;57.26
52535;BME280;38443;53.164;5.802;2022-08-01T08:08:55;102007.78;;;20.00;57.08
52535;BME280;38443;53.164;5.802;2022-08-01T08:11:21;102007.78;;;20.00;56.66
52535;BME280;38443;53.164;5.802;2022-08-01T08:13:47;102011.00;;;20.26;55.84
52535;BME280;38443;53.164;5.802;2022-08-01T08:16:12;102012.16;;;20.39;53.98
52535;BME280;38443;53.164;5.802;2022-08-01T08:18:38;102019.56;;;20.36;55.15
52535;BME280;38443;53.164;5.802;2022-08-01T08:21:04;102014.94;;;20.55;54.89
52535;BME280;38443;53.164;5.802;2022-08-01T08:23:29;102019.44;;;20.74;54.37
52535;BME280;38443;53.164;5.802;2022-08-01T08:26:13;102017.09;;;20.48;54.53
52535;BME280;38443;53.164;5.802;2022-08-01T08:28:38;102023.09;;;20.38;54.45
52535;BME280;38443;53.164;5.802;2022-08-01T08:31:04;102008.47;;;20.23;54.41
52535;BME280;38443;53.164;5.802;2022-08-01T08:33:29;102016.94;;;20.17;54.55
52535;BME280;38443;53.164;5.802;2022-08-01T08:35:55;102016.28;;;20.11;54.61
52535;BME280;38443;53.164;5.802;2022-08-01T08:38:20;102021.16;;;20.05;54.65
52535;BME280;38443;53.164;5.802;2022-08-01T08:40:45;102032.50;;;19.77;54.56
52535;BME280;38443;53.164;5.802;2022-08-01T08:43:11;102029.41;;;19.65;54.40
52535;BME280;38443;53.164;5.802;2022-08-01T08:45:37;102024.88;;;19.85;54.41
52535;BME280;38443;53.164;5.802;2022-08-01T08:48:05;102018.22;;;19.90;54.13
52535;BME280;38443;53.164;5.802;2022-08-01T08:50:31;102029.31;;;19.86;54.58
52535;BME280;38443;53.164;5.802;2022-08-01T08:52:57;102032.84;;;19.88;53.99
52535;BME280;38443;53.164;5.802;2022-08-01T08:55:27;102036.56;;;20.04;53.62
52535;BME280;38443;53.164;5.802;2022-08-01T08:57:54;102036.13;;;20.31;54.07
52535;BME280;38443;53.164;5.802;2022-08-01T09:00:20;102041.41;;;20.34;53.88
52535;BME280;38443;53.164;5.802;2022-08-01T09:02:47;102036.78;;;20.19;52.07
52535;BME280;38443;53.164;5.802;2022-08-01T09:05:14;102049.59;;;19.98;53.22
52535;BME280;38443;53.164;5.802;2022-08-01T09:07:40;102036.22;;;20.29;52.95
52535;BME280;38443;53.164;5.802;2022-08-01T09:10:07;102053.25;;;20.50;52.46
52535;BME280;38443;53.164;5.802;2022-08-01T09:12:32;102045.63;;;20.59;52.09
52535;BME280;38443;53.164;5.802;2022-08-01T09:14:58;102051.03;;;20.41;52.12
52535;BME280;38443;53.164;5.802;2022-08-01T09:17:23;102052.28;;;20.17;52.51
52535;BME280;38443;53.164;5.802;2022-08-01T09:19:51;102058.53;;;19.62;53.72
52535;BME280;38443;53.164;5.802;2022-08-01T09:22:20;102051.78;;;19.32;53.01
52535;BME280;38443;53.164;5.802;2022-08-01T09:25:08;102048.47;;;19.64;52.13
52535;BME280;38443;53.164;5.802;2022-08-01T09:27:34;102060.31;;;19.82;52.38
52535;BME280;38443;53.164;5.802;2022-08-01T09:30:26;102049.94;;;20.09;50.42
52535;BME280;38443;53.164;5.802;2022-08-01T09:33:02;102053.25;;;20.33;52.81
52535;BME280;38443;53.164;5.802;2022-08-01T09:35:33;102062.44;;;19.94;48.83
52535;BME280;38443;53.164;5.802;2022-08-01T09:40:46;102059.78;;;20.11;51.17
52535;BME280;38443;53.164;5.802;2022-08-01T09:43:12;102061.22;;;20.19;51.67
52535;BME280;38443;53.164;5.802;2022-08-01T09:45:37;102065.97;;;19.96;51.65
52535;BME280;38443;53.164;5.802;2022-08-01T09:48:09;102064.16;;;19.78;49.69
52535;BME280;38443;53.164;5.802;2022-08-01T09:50:53;102063.47;;;19.91;50.67
52535;BME280;38443;53.164;5.802;2022-08-01T09:53:19;102061.81;;;20.06;52.17
52535;BME280;38443;53.164;5.802;2022-08-01T09:55:45;102081.25;;;19.80;52.38
52535;BME280;38443;53.164;5.802;2022-08-01T09:58:11;102077.97;;;19.73;52.44
52535;BME280;38443;53.164;5.802;2022-08-01T10:00:38;102081.44;;;19.56;50.95
52535;BME280;38443;53.164;5.802;2022-08-01T10:03:25;102083.56;;;19.68;50.08
52535;BME280;38443;53.164;5.802;2022-08-01T10:05:51;102081.13;;;19.62;51.01
52535;BME280;38443;53.164;5.802;2022-08-01T10:08:18;102084.38;;;19.51;50.99
52535;BME280;38443;53.164;5.802;2022-08-01T10:11:10;102089.13;;;19.46;50.14
52535;BME280;38443;53.164;5.802;2022-08-01T10:13:37;102083.84;;;19.43;50.88
52535;BME280;38443;53.164;5.802;2022-08-01T10:16:03;102095.91;;;19.57;50.98
52535;BME280;38443;53.164;5.802;2022-08-01T10:18:32;102080.44;;;19.59;51.01
52535;BME280;38443;53.164;5.802;2022-08-01T10:21:03;102091.13;;;19.43;49.10
52535;BME280;38443;53.164;5.802;2022-08-01T10:23:34;102089.22;;;19.45;50.03
52535;BME280;38443;53.164;5.802;2022-08-01T10:26:00;102085.00;;;19.38;50.78
52535;BME280;38443;53.164;5.802;2022-08-01T10:28:30;102085.31;;;19.31;50.41
52535;BME280;38443;53.164;5.802;2022-08-01T10:30:57;102090.78;;;19.50;50.04
52535;BME280;38443;53.164;5.802;2022-08-01T10:33:23;102082.91;;;19.63;49.45
52535;BME280;38443;53.164;5.802;2022-08-01T10:35:52;102086.34;;;19.48;50.14
52535;BME280;38443;53.164;5.802;2022-08-01T10:38:17;102089.91;;;19.29;50.36
52535;BME280;38443;53.164;5.802;2022-08-01T10:40:43;102089.69;;;19.34;50.85
52535;BME280;38443;53.164;5.802;2022-08-01T10:43:10;102092.97;;;19.61;49.60
52535;BME280;38443;53.164;5.802;2022-08-01T10:45:35;102088.88;;;19.90;48.70
52535;BME280;38443;53.164;5.802;2022-08-01T10:50:37;102094.94;;;19.39;48.39
52535;BME280;38443;53.164;5.802;2022-08-01T10:53:23;102094.59;;;19.26;48.56
52535;BME280;38443;53.164;5.802;2022-08-01T10:55:58;102094.13;;;19.37;48.29
52535;BME280;38443;53.164;5.802;2022-08-01T10:58:31;102090.03;;;19.47;49.05
52535;BME280;38443;53.164;5.802;2022-08-01T11:03:41;102089.44;;;19.59;48.44
52535;BME280;38443;53.164;5.802;2022-08-01T11:06:16;102093.63;;;19.47;47.85
52535;BME280;38443;53.164;5.802;2022-08-01T11:08:42;102098.19;;;19.47;48.71
52535;BME280;38443;53.164;5.802;2022-08-01T11:11:15;102087.53;;;19.61;48.26
52535;BME280;38443;53.164;5.802;2022-08-01T11:16:39;102098.88;;;19.31;47.40
52535;BME280;38443;53.164;5.802;2022-08-01T11:19:06;102091.50;;;19.54;47.88
52535;BME280;38443;53.164;5.802;2022-08-01T11:27:23;102096.34;;;19.66;46.61
52535;BME280;38443;53.164;5.802;2022-08-01T11:32:33;102087.31;;;20.04;46.91
52535;BME280;38443;53.164;5.802;2022-08-01T11:34:59;102092.25;;;20.15;47.25
52535;BME280;38443;53.164;5.802;2022-08-01T11:37:25;102082.94;;;20.38;47.13
52535;BME280;38443;53.164;5.802;2022-08-01T11:42:45;102088.50;;;20.35;48.56
52535;BME280;38443;53.164;5.802;2022-08-01T11:45:11;102095.91;;;20.13;48.03
52535;BME280;38443;53.164;5.802;2022-08-01T11:47:43;102094.16;;;19.93;46.42
52535;BME280;38443;53.164;5.802;2022-08-01T11:50:39;102099.03;;;19.87;45.28
52535;BME280;38443;53.164;5.802;2022-08-01T11:53:06;102092.25;;;19.96;47.36
52535;BME280;38443;53.164;5.802;2022-08-01T11:55:32;102097.38;;;20.21;46.90
52535;BME280;38443;53.164;5.802;2022-08-01T11:58:07;102096.38;;;20.41;45.92
52535;BME280;38443;53.164;5.802;2022-08-01T12:00:33;102085.25;;;20.45;46.31
52535;BME280;38443;53.164;5.802;2022-08-01T12:03:01;102087.81;;;20.31;46.29
52535;BME280;38443;53.164;5.802;2022-08-01T12:05:29;102097.19;;;20.43;46.42
52535;BME280;38443;53.164;5.802;2022-08-01T12:07:55;102092.84;;;20.39;46.19
52535;BME280;38443;53.164;5.802;2022-08-01T12:10:26;102102.47;;;20.09;46.09
52535;BME280;38443;53.164;5.802;2022-08-01T12:12:58;102101.47;;;20.10;46.81
52535;BME280;38443;53.164;5.802;2022-08-01T12:15:29;102094.75;;;20.00;46.27
52535;BME280;38443;53.164;5.802;2022-08-01T12:17:56;102087.69;;;20.15;46.73
52535;BME280;38443;53.164;5.802;2022-08-01T12:20:23;102081.88;;;20.23;46.96
52535;BME280;38443;53.164;5.802;2022-08-01T12:22:54;102095.97;;;20.31;46.26
52535;BME280;38443;53.164;5.802;2022-08-01T12:25:20;102091.22;;;20.35;46.34
52535;BME280;38443;53.164;5.802;2022-08-01T12:27:47;102097.09;;;20.08;46.60
52535;BME280;38443;53.164;5.802;2022-08-01T12:30:18;102098.00;;;19.89;45.13
52535;BME280;38443;53.164;5.802;2022-08-01T12:32:46;102096.09;;;19.91;45.88
52535;BME280;38443;53.164;5.802;2022-08-01T12:37:44;102093.00;;;19.99;45.64
52535;BME280;38443;53.164;5.802;2022-08-01T12:40:21;102088.56;;;20.16;45.68
52535;BME280;38443;53.164;5.802;2022-08-01T12:42:48;102098.88;;;20.09;43.87
52535;BME280;38443;53.164;5.802;2022-08-01T12:45:19;102097.44;;;20.19;45.72
52535;BME280;38443;53.164;5.802;2022-08-01T12:47:46;102093.25;;;20.31;44.77
52535;BME280;38443;53.164;5.802;2022-08-01T12:50:15;102095.47;;;20.40;44.84
52535;BME280;38443;53.164;5.802;2022-08-01T12:52:42;102095.03;;;20.49;44.64
52535;BME280;38443;53.164;5.802;2022-08-01T12:55:09;102092.44;;;20.46;44.15
52535;BME280;38443;53.164;5.802;2022-08-01T12:57:36;102086.63;;;20.54;43.89
52535;BME280;38443;53.164;5.802;2022-08-01T13:00:13;102085.22;;;20.64;42.90
52535;BME280;38443;53.164;5.802;2022-08-01T13:02:40;102088.03;;;20.63;43.92
52535;BME280;38443;53.164;5.802;2022-08-01T13:05:07;102092.34;;;20.67;44.49
52535;BME280;38443;53.164;5.802;2022-08-01T13:10:07;102086.28;;;21.12;43.92
52535;BME280;38443;53.164;5.802;2022-08-01T13:12:33;102092.69;;;21.29;43.96
52535;BME280;38443;53.164;5.802;2022-08-01T13:14:58;102091.06;;;20.91;44.35
52535;BME280;38443;53.164;5.802;2022-08-01T13:17:33;102088.66;;;20.85;44.20
52535;BME280;38443;53.164;5.802;2022-08-01T13:20:04;102095.31;;;20.80;44.32
52535;BME280;38443;53.164;5.802;2022-08-01T13:22:34;102084.81;;;20.72;43.14
52535;BME280;38443;53.164;5.802;2022-08-01T13:25:13;102086.09;;;20.82;43.41
52535;BME280;38443;53.164;5.802;2022-08-01T13:27:38;102086.72;;;21.05;43.65